sensor_id;sensor_type;location;lat;lon;timestamp;P1;durP1;ratioP1;P2;durP2;ratioP2
76978;SDS011;65911;47.502;19.148;2023-04-24T00:01:08;8.90;;;4.57;;
76978;SDS011;65911;47.502;19.148;2023-04-24T00:04:11;5.90;;;4.47;;
76978;SDS011;65911;47.502;19.148;2023-04-24T00:07:16;6.97;;;4.65;;
76978;SDS011;65911;47.502;19.148;2023-04-24T00:10:18;5.78;;;4.60;;
76978;SDS011;65911;47.502;19.148;2023-04-24T00:13:21;7.82;;;4.60;;
76978;SDS011;65911;47.502;19.148;2023-04-24T00:16:23;6.82;;;4.78;;
76978;SDS011;65911;47.502;19.148;2023-04-24T00:19:25;5.55;;;4.07;;
76978;SDS011;65911;47.502;19.148;2023-04-24T00:22:28;10.03;;;4.40;;
76978;SDS011;65911;47.502;19.148;2023-04-24T00:25:30;6.65;;;4.90;;
76978;SDS011;65911;47.502;19.148;2023-04-24T00:28:33;5.45;;;4.25;;
76978;SDS011;65911;47.502;19.148;2023-04-24T00:31:35;7.53;;;4.67;;
76978;SDS011;65911;47.502;19.148;2023-04-24T00:34:37;6.68;;;4.75;;
76978;SDS011;65911;47.502;19.148;2023-04-24T00:37:39;7.50;;;4.70;;
76978;SDS011;65911;47.502;19.148;2023-04-24T00:40:42;6.97;;;4.68;;
76978;SDS011;65911;47.502;19.148;2023-04-24T00:43:44;6.93;;;4.65;;
76978;SDS011;65911;47.502;19.148;2023-04-24T00:46:46;7.63;;;4.75;;
76978;SDS011;65911;47.502;19.148;2023-04-24T00:49:53;6.25;;;4.70;;
76978;SDS011;65911;47.502;19.148;2023-04-24T00:52:57;6.77;;;4.37;;
76978;SDS011;65911;47.502;19.148;2023-04-24T00:56:00;8.02;;;4.32;;
76978;SDS011;65911;47.502;19.148;2023-04-24T00:59:03;6.88;;;4.45;;
76978;SDS011;65911;47.502;19.148;2023-04-24T01:02:06;7.23;;;4.63;;
76978;SDS011;65911;47.502;19.148;2023-04-24T01:05:09;10.23;;;4.28;;
76978;SDS011;65911;47.502;19.148;2023-04-24T01:08:11;6.40;;;4.22;;
76978;SDS011;65911;47.502;19.148;2023-04-24T01:11:14;10.70;;;4.55;;
76978;SDS011;65911;47.502;19.148;2023-04-24T01:14:16;6.07;;;4.80;;
76978;SDS011;65911;47.502;19.148;2023-04-24T01:17:18;8.30;;;4.40;;
76978;SDS011;65911;47.502;19.148;2023-04-24T01:20:22;9.43;;;4.78;;
76978;SDS011;65911;47.502;19.148;2023-04-24T01:23:25;6.90;;;4.63;;
76978;SDS011;65911;47.502;19.148;2023-04-24T01:26:27;6.57;;;4.97;;
76978;SDS011;65911;47.502;19.148;2023-04-24T01:29:30;8.23;;;4.38;;
76978;SDS011;65911;47.502;19.148;2023-04-24T01:32:32;8.13;;;4.33;;
76978;SDS011;65911;47.502;19.148;2023-04-24T01:35:35;8.13;;;4.20;;
76978;SDS011;65911;47.502;19.148;2023-04-24T01:38:37;8.93;;;4.80;;
76978;SDS011;65911;47.502;19.148;2023-04-24T01:41:40;7.15;;;4.72;;
76978;SDS011;65911;47.502;19.148;2023-04-24T01:44:42;7.28;;;5.03;;
76978;SDS011;65911;47.502;19.148;2023-04-24T01:47:45;8.45;;;5.10;;
76978;SDS011;65911;47.502;19.148;2023-04-24T01:50:48;6.57;;;4.25;;
76978;SDS011;65911;47.502;19.148;2023-04-24T01:53:50;7.83;;;4.20;;
76978;SDS011;65911;47.502;19.148;2023-04-24T01:56:52;7.47;;;5.07;;
76978;SDS011;65911;47.502;19.148;2023-04-24T01:59:55;8.88;;;5.03;;
76978;SDS011;65911;47.502;19.148;2023-04-24T02:02:57;9.93;;;4.90;;
76978;SDS011;65911;47.502;19.148;2023-04-24T02:06:01;6.20;;;4.65;;
76978;SDS011;65911;47.502;19.148;2023-04-24T02:09:05;8.23;;;4.78;;
76978;SDS011;65911;47.502;19.148;2023-04-24T02:12:07;6.43;;;5.38;;
76978;SDS011;65911;47.502;19.148;2023-04-24T02:15:10;9.50;;;5.20;;
76978;SDS011;65911;47.502;19.148;2023-04-24T02:18:12;9.60;;;5.43;;
76978;SDS011;65911;47.502;19.148;2023-04-24T02:21:14;7.80;;;5.75;;
76978;SDS011;65911;47.502;19.148;2023-04-24T02:24:17;7.80;;;4.87;;
76978;SDS011;65911;47.502;19.148;2023-04-24T02:27:19;8.63;;;5.22;;
76978;SDS011;65911;47.502;19.148;2023-04-24T02:30:22;7.88;;;5.20;;
76978;SDS011;65911;47.502;19.148;2023-04-24T02:33:24;10.93;;;6.23;;
76978;SDS011;65911;47.502;19.148;2023-04-24T02:36:26;7.40;;;5.13;;
76978;SDS011;65911;47.502;19.148;2023-04-24T02:39:29;7.45;;;5.43;;
76978;SDS011;65911;47.502;19.148;2023-04-24T02:42:31;8.02;;;5.55;;
76978;SDS011;65911;47.502;19.148;2023-04-24T02:45:33;7.07;;;5.72;;
76978;SDS011;65911;47.502;19.148;2023-04-24T02:48:36;8.05;;;5.45;;
76978;SDS011;65911;47.502;19.148;2023-04-24T02:51:38;8.18;;;5.30;;
76978;SDS011;65911;47.502;19.148;2023-04-24T02:54:43;8.07;;;5.10;;
76978;SDS011;65911;47.502;19.148;2023-04-24T02:57:45;8.48;;;5.35;;
76978;SDS011;65911;47.502;19.148;2023-04-24T03:00:47;11.40;;;5.10;;
76978;SDS011;65911;47.502;19.148;2023-04-24T03:03:50;10.10;;;5.37;;
76978;SDS011;65911;47.502;19.148;2023-04-24T03:06:52;10.27;;;5.70;;
76978;SDS011;65911;47.502;19.148;2023-04-24T03:09:56;9.70;;;6.30;;
76978;SDS011;65911;47.502;19.148;2023-04-24T03:13:01;6.82;;;5.07;;
76978;SDS011;65911;47.502;19.148;2023-04-24T03:16:03;8.82;;;5.47;;
76978;SDS011;65911;47.502;19.148;2023-04-24T03:19:05;7.75;;;5.28;;
76978;SDS011;65911;47.502;19.148;2023-04-24T03:22:14;7.20;;;5.07;;
76978;SDS011;65911;47.502;19.148;2023-04-24T03:25:17;5.93;;;5.30;;
76978;SDS011;65911;47.502;19.148;2023-04-24T03:28:19;8.15;;;5.95;;
76978;SDS011;65911;47.502;19.148;2023-04-24T03:31:31;7.25;;;5.43;;
76978;SDS011;65911;47.502;19.148;2023-04-24T03:34:33;9.43;;;5.57;;
76978;SDS011;65911;47.502;19.148;2023-04-24T03:37:36;7.85;;;5.38;;
76978;SDS011;65911;47.502;19.148;2023-04-24T03:40:57;7.88;;;5.45;;
76978;SDS011;65911;47.502;19.148;2023-04-24T03:44:13;8.57;;;5.75;;
76978;SDS011;65911;47.502;19.148;2023-04-24T03:47:16;6.20;;;5.60;;
76978;SDS011;65911;47.502;19.148;2023-04-24T03:50:19;10.30;;;6.05;;
76978;SDS011;65911;47.502;19.148;2023-04-24T03:53:22;8.20;;;5.90;;
76978;SDS011;65911;47.502;19.148;2023-04-24T03:56:24;9.10;;;4.83;;
76978;SDS011;65911;47.502;19.148;2023-04-24T03:59:27;6.55;;;5.32;;
76978;SDS011;65911;47.502;19.148;2023-04-24T04:02:42;8.07;;;5.45;;
76978;SDS011;65911;47.502;19.148;2023-04-24T04:05:45;7.43;;;6.13;;
76978;SDS011;65911;47.502;19.148;2023-04-24T04:08:47;9.05;;;5.50;;
76978;SDS011;65911;47.502;19.148;2023-04-24T04:11:49;8.82;;;5.93;;
76978;SDS011;65911;47.502;19.148;2023-04-24T04:14:52;7.40;;;5.85;;
76978;SDS011;65911;47.502;19.148;2023-04-24T04:17:54;7.75;;;6.35;;
76978;SDS011;65911;47.502;19.148;2023-04-24T04:20:57;6.72;;;5.80;;
76978;SDS011;65911;47.502;19.148;2023-04-24T04:24:00;7.38;;;6.15;;
76978;SDS011;65911;47.502;19.148;2023-04-24T04:27:08;9.23;;;5.23;;
76978;SDS011;65911;47.502;19.148;2023-04-24T04:30:32;7.55;;;5.60;;
76978;SDS011;65911;47.502;19.148;2023-04-24T04:33:37;10.27;;;5.60;;
76978;SDS011;65911;47.502;19.148;2023-04-24T04:36:42;9.80;;;6.00;;
76978;SDS011;65911;47.502;19.148;2023-04-24T04:40:00;6.68;;;5.68;;
76978;SDS011;65911;47.502;19.148;2023-04-24T04:43:08;9.80;;;5.63;;
76978;SDS011;65911;47.502;19.148;2023-04-24T04:46:18;8.23;;;5.68;;
76978;SDS011;65911;47.502;19.148;2023-04-24T04:49:37;8.40;;;6.65;;
76978;SDS011;65911;47.502;19.148;2023-04-24T04:52:46;9.35;;;6.38;;
76978;SDS011;65911;47.502;19.148;2023-04-24T04:55:58;10.60;;;6.07;;
76978;SDS011;65911;47.502;19.148;2023-04-24T04:59:15;9.23;;;6.17;;
76978;SDS011;65911;47.502;19.148;2023-04-24T05:02:19;9.40;;;6.63;;
76978;SDS011;65911;47.502;19.148;2023-04-24T05:05:21;8.50;;;5.97;;
76978;SDS011;65911;47.502;19.148;2023-04-24T05:08:24;9.77;;;6.50;;
76978;SDS011;65911;47.502;19.148;2023-04-24T05:11:29;7.60;;;5.90;;
76978;SDS011;65911;47.502;19.148;2023-04-24T05:14:33;9.60;;;5.85;;
76978;SDS011;65911;47.502;19.148;2023-04-24T05:17:36;11.02;;;5.78;;
76978;SDS011;65911;47.502;19.148;2023-04-24T05:20:38;7.60;;;5.68;;
76978;SDS011;65911;47.502;19.148;2023-04-24T05:23:41;9.05;;;5.40;;
76978;SDS011;65911;47.502;19.148;2023-04-24T05:26:45;9.93;;;5.70;;
76978;SDS011;65911;47.502;19.148;2023-04-24T05:29:51;8.13;;;5.77;;
76978;SDS011;65911;47.502;19.148;2023-04-24T05:32:54;8.50;;;5.45;;
76978;SDS011;65911;47.502;19.148;2023-04-24T05:35:56;8.27;;;5.28;;
76978;SDS011;65911;47.502;19.148;2023-04-24T05:38:59;7.90;;;5.40;;
76978;SDS011;65911;47.502;19.148;2023-04-24T05:42:02;6.95;;;5.25;;
76978;SDS011;65911;47.502;19.148;2023-04-24T05:45:06;10.35;;;5.32;;
76978;SDS011;65911;47.502;19.148;2023-04-24T05:48:09;12.52;;;5.13;;
76978;SDS011;65911;47.502;19.148;2023-04-24T05:51:12;9.45;;;5.15;;
76978;SDS011;65911;47.502;19.148;2023-04-24T05:54:14;7.45;;;5.20;;
76978;SDS011;65911;47.502;19.148;2023-04-24T05:57:17;7.78;;;5.18;;
76978;SDS011;65911;47.502;19.148;2023-04-24T06:00:34;7.37;;;5.00;;
76978;SDS011;65911;47.502;19.148;2023-04-24T06:03:41;7.15;;;4.93;;
76978;SDS011;65911;47.502;19.148;2023-04-24T06:06:44;6.63;;;4.93;;
76978;SDS011;65911;47.502;19.148;2023-04-24T06:09:49;7.17;;;5.33;;
76978;SDS011;65911;47.502;19.148;2023-04-24T06:12:51;6.88;;;5.07;;
76978;SDS011;65911;47.502;19.148;2023-04-24T06:15:54;8.02;;;6.15;;
76978;SDS011;65911;47.502;19.148;2023-04-24T06:19:05;10.10;;;5.72;;
76978;SDS011;65911;47.502;19.148;2023-04-24T06:22:08;9.05;;;5.28;;
76978;SDS011;65911;47.502;19.148;2023-04-24T06:25:12;9.15;;;4.93;;
76978;SDS011;65911;47.502;19.148;2023-04-24T06:28:14;8.15;;;6.03;;
76978;SDS011;65911;47.502;19.148;2023-04-24T06:31:16;8.23;;;5.20;;
76978;SDS011;65911;47.502;19.148;2023-04-24T06:34:18;5.68;;;5.03;;
76978;SDS011;65911;47.502;19.148;2023-04-24T06:37:21;8.55;;;5.00;;
76978;SDS011;65911;47.502;19.148;2023-04-24T06:40:23;7.37;;;5.67;;
76978;SDS011;65911;47.502;19.148;2023-04-24T06:43:26;8.50;;;5.38;;
76978;SDS011;65911;47.502;19.148;2023-04-24T06:46:28;8.48;;;5.32;;
76978;SDS011;65911;47.502;19.148;2023-04-24T06:49:31;9.02;;;5.32;;
76978;SDS011;65911;47.502;19.148;2023-04-24T06:52:41;9.57;;;6.10;;
76978;SDS011;65911;47.502;19.148;2023-04-24T06:55:45;7.72;;;5.97;;
76978;SDS011;65911;47.502;19.148;2023-04-24T06:58:50;6.88;;;5.78;;
76978;SDS011;65911;47.502;19.148;2023-04-24T07:01:54;9.27;;;6.20;;
76978;SDS011;65911;47.502;19.148;2023-04-24T07:05:04;8.45;;;6.22;;
76978;SDS011;65911;47.502;19.148;2023-04-24T07:08:08;7.95;;;5.65;;
76978;SDS011;65911;47.502;19.148;2023-04-24T07:11:14;7.97;;;5.87;;
76978;SDS011;65911;47.502;19.148;2023-04-24T07:14:19;9.02;;;5.72;;
76978;SDS011;65911;47.502;19.148;2023-04-24T07:17:27;8.10;;;6.00;;
76978;SDS011;65911;47.502;19.148;2023-04-24T07:20:34;7.63;;;5.65;;
76978;SDS011;65911;47.502;19.148;2023-04-24T07:23:36;8.25;;;6.25;;
76978;SDS011;65911;47.502;19.148;2023-04-24T07:26:39;8.30;;;6.40;;
76978;SDS011;65911;47.502;19.148;2023-04-24T07:29:46;8.05;;;5.68;;
76978;SDS011;65911;47.502;19.148;2023-04-24T07:32:48;9.60;;;5.70;;
76978;SDS011;65911;47.502;19.148;2023-04-24T07:35:51;9.65;;;5.97;;
76978;SDS011;65911;47.502;19.148;2023-04-24T07:38:53;8.82;;;6.10;;
76978;SDS011;65911;47.502;19.148;2023-04-24T07:41:58;8.60;;;6.33;;
76978;SDS011;65911;47.502;19.148;2023-04-24T07:45:03;8.27;;;6.10;;
76978;SDS011;65911;47.502;19.148;2023-04-24T07:48:10;9.93;;;6.10;;
76978;SDS011;65911;47.502;19.148;2023-04-24T07:51:26;10.02;;;6.32;;
76978;SDS011;65911;47.502;19.148;2023-04-24T07:54:32;11.20;;;6.63;;
76978;SDS011;65911;47.502;19.148;2023-04-24T07:57:34;8.95;;;6.55;;
76978;SDS011;65911;47.502;19.148;2023-04-24T08:00:54;8.77;;;6.25;;
76978;SDS011;65911;47.502;19.148;2023-04-24T08:04:02;13.03;;;6.73;;
76978;SDS011;65911;47.502;19.148;2023-04-24T08:07:07;11.18;;;6.47;;
76978;SDS011;65911;47.502;19.148;2023-04-24T08:10:12;9.02;;;5.55;;
76978;SDS011;65911;47.502;19.148;2023-04-24T08:13:22;8.30;;;6.10;;
76978;SDS011;65911;47.502;19.148;2023-04-24T08:16:28;8.05;;;6.00;;
76978;SDS011;65911;47.502;19.148;2023-04-24T08:19:36;9.57;;;6.40;;
76978;SDS011;65911;47.502;19.148;2023-04-24T08:22:50;8.93;;;6.40;;
76978;SDS011;65911;47.502;19.148;2023-04-24T08:25:52;11.38;;;6.50;;
76978;SDS011;65911;47.502;19.148;2023-04-24T08:28:55;8.98;;;6.00;;
76978;SDS011;65911;47.502;19.148;2023-04-24T08:32:59;9.57;;;5.38;;
76978;SDS011;65911;47.502;19.148;2023-04-24T08:36:05;9.57;;;6.47;;
76978;SDS011;65911;47.502;19.148;2023-04-24T08:39:09;9.57;;;6.18;;
76978;SDS011;65911;47.502;19.148;2023-04-24T08:46:12;8.67;;;6.13;;
76978;SDS011;65911;47.502;19.148;2023-04-24T08:50:26;6.70;;;5.30;;
76978;SDS011;65911;47.502;19.148;2023-04-24T08:53:40;8.88;;;6.28;;
76978;SDS011;65911;47.502;19.148;2023-04-24T08:56:51;9.52;;;6.13;;
76978;SDS011;65911;47.502;19.148;2023-04-24T09:00:14;11.27;;;6.10;;
76978;SDS011;65911;47.502;19.148;2023-04-24T09:07:39;8.88;;;5.88;;
76978;SDS011;65911;47.502;19.148;2023-04-24T09:15:38;7.82;;;5.18;;
76978;SDS011;65911;47.502;19.148;2023-04-24T09:18:42;7.38;;;4.63;;
76978;SDS011;65911;47.502;19.148;2023-04-24T09:21:56;5.70;;;4.67;;
76978;SDS011;65911;47.502;19.148;2023-04-24T09:25:07;5.53;;;4.32;;
76978;SDS011;65911;47.502;19.148;2023-04-24T09:32:21;6.18;;;4.07;;
76978;SDS011;65911;47.502;19.148;2023-04-24T09:35:26;7.38;;;3.58;;
76978;SDS011;65911;47.502;19.148;2023-04-24T09:38:35;7.68;;;4.50;;
76978;SDS011;65911;47.502;19.148;2023-04-24T09:55:44;5.47;;;4.22;;
76978;SDS011;65911;47.502;19.148;2023-04-24T10:09:37;7.13;;;3.85;;
76978;SDS011;65911;47.502;19.148;2023-04-24T10:22:35;5.95;;;3.70;;
76978;SDS011;65911;47.502;19.148;2023-04-24T10:39:16;4.65;;;3.30;;
76978;SDS011;65911;47.502;19.148;2023-04-24T10:42:29;6.70;;;3.60;;
76978;SDS011;65911;47.502;19.148;2023-04-24T10:45:34;5.90;;;3.58;;
76978;SDS011;65911;47.502;19.148;2023-04-24T10:58:37;6.15;;;3.97;;
76978;SDS011;65911;47.502;19.148;2023-04-24T11:01:51;7.10;;;3.97;;
76978;SDS011;65911;47.502;19.148;2023-04-24T11:05:05;6.55;;;3.85;;
76978;SDS011;65911;47.502;19.148;2023-04-24T11:18:39;7.00;;;3.95;;
76978;SDS011;65911;47.502;19.148;2023-04-24T11:34:51;5.78;;;3.67;;
76978;SDS011;65911;47.502;19.148;2023-04-24T11:38:00;7.95;;;3.88;;
76978;SDS011;65911;47.502;19.148;2023-04-24T11:41:10;5.35;;;4.30;;
76978;SDS011;65911;47.502;19.148;2023-04-24T11:44:13;5.80;;;3.90;;
76978;SDS011;65911;47.502;19.148;2023-04-24T11:47:17;7.87;;;4.40;;
76978;SDS011;65911;47.502;19.148;2023-04-24T11:50:38;5.70;;;4.60;;
76978;SDS011;65911;47.502;19.148;2023-04-24T11:56:03;6.93;;;4.80;;
76978;SDS011;65911;47.502;19.148;2023-04-24T11:59:16;10.23;;;4.67;;
76978;SDS011;65911;47.502;19.148;2023-04-24T12:03:27;6.47;;;4.30;;
76978;SDS011;65911;47.502;19.148;2023-04-24T12:12:46;6.95;;;4.10;;
76978;SDS011;65911;47.502;19.148;2023-04-24T12:15:50;5.72;;;3.83;;
76978;SDS011;65911;47.502;19.148;2023-04-24T12:18:52;6.05;;;4.50;;
76978;SDS011;65911;47.502;19.148;2023-04-24T12:21:58;7.07;;;4.65;;
76978;SDS011;65911;47.502;19.148;2023-04-24T12:25:06;5.50;;;3.60;;
76978;SDS011;65911;47.502;19.148;2023-04-24T12:28:14;6.75;;;3.88;;
76978;SDS011;65911;47.502;19.148;2023-04-24T12:31:17;5.18;;;3.42;;
76978;SDS011;65911;47.502;19.148;2023-04-24T12:34:20;5.77;;;3.53;;
76978;SDS011;65911;47.502;19.148;2023-04-24T12:37:26;4.75;;;3.25;;
76978;SDS011;65911;47.502;19.148;2023-04-24T12:40:34;6.22;;;3.50;;
76978;SDS011;65911;47.502;19.148;2023-04-24T12:43:50;7.57;;;3.45;;
76978;SDS011;65911;47.502;19.148;2023-04-24T12:46:58;6.63;;;3.65;;
76978;SDS011;65911;47.502;19.148;2023-04-24T12:50:14;5.20;;;3.53;;
76978;SDS011;65911;47.502;19.148;2023-04-24T12:53:26;6.28;;;4.13;;
76978;SDS011;65911;47.502;19.148;2023-04-24T12:56:31;7.00;;;3.60;;
76978;SDS011;65911;47.502;19.148;2023-04-24T12:59:35;5.63;;;3.35;;
76978;SDS011;65911;47.502;19.148;2023-04-24T13:02:43;5.82;;;3.45;;
76978;SDS011;65911;47.502;19.148;2023-04-24T13:05:45;4.73;;;3.23;;
76978;SDS011;65911;47.502;19.148;2023-04-24T13:08:47;10.75;;;3.30;;
76978;SDS011;65911;47.502;19.148;2023-04-24T13:11:50;4.05;;;2.88;;
76978;SDS011;65911;47.502;19.148;2023-04-24T13:14:53;3.65;;;2.80;;
76978;SDS011;65911;47.502;19.148;2023-04-24T13:17:55;6.13;;;2.60;;
76978;SDS011;65911;47.502;19.148;2023-04-24T13:20:58;3.53;;;2.25;;
76978;SDS011;65911;47.502;19.148;2023-04-24T13:24:00;5.10;;;2.50;;
76978;SDS011;65911;47.502;19.148;2023-04-24T13:27:03;6.47;;;2.47;;
76978;SDS011;65911;47.502;19.148;2023-04-24T13:30:06;4.25;;;2.63;;
76978;SDS011;65911;47.502;19.148;2023-04-24T13:33:09;2.58;;;1.70;;
76978;SDS011;65911;47.502;19.148;2023-04-24T13:36:11;6.40;;;2.60;;
76978;SDS011;65911;47.502;19.148;2023-04-24T13:39:13;3.88;;;2.03;;
76978;SDS011;65911;47.502;19.148;2023-04-24T13:42:16;4.22;;;2.50;;
76978;SDS011;65911;47.502;19.148;2023-04-24T13:45:18;6.43;;;2.20;;
76978;SDS011;65911;47.502;19.148;2023-04-24T13:48:26;4.38;;;2.10;;
76978;SDS011;65911;47.502;19.148;2023-04-24T13:51:28;4.47;;;2.25;;
76978;SDS011;65911;47.502;19.148;2023-04-24T13:54:31;2.63;;;2.22;;
76978;SDS011;65911;47.502;19.148;2023-04-24T13:57:33;3.70;;;2.10;;
76978;SDS011;65911;47.502;19.148;2023-04-24T14:00:36;3.50;;;2.30;;
76978;SDS011;65911;47.502;19.148;2023-04-24T14:03:38;3.97;;;2.35;;
76978;SDS011;65911;47.502;19.148;2023-04-24T14:06:40;4.17;;;2.23;;
76978;SDS011;65911;47.502;19.148;2023-04-24T14:09:43;4.80;;;2.08;;
76978;SDS011;65911;47.502;19.148;2023-04-24T14:12:46;5.53;;;2.25;;
76978;SDS011;65911;47.502;19.148;2023-04-24T14:15:48;3.72;;;2.65;;
76978;SDS011;65911;47.502;19.148;2023-04-24T14:18:50;3.20;;;2.58;;
76978;SDS011;65911;47.502;19.148;2023-04-24T14:21:52;5.05;;;2.65;;
76978;SDS011;65911;47.502;19.148;2023-04-24T14:24:57;4.38;;;2.60;;
76978;SDS011;65911;47.502;19.148;2023-04-24T14:27:59;5.87;;;3.03;;
76978;SDS011;65911;47.502;19.148;2023-04-24T14:31:02;4.53;;;2.63;;
76978;SDS011;65911;47.502;19.148;2023-04-24T14:34:04;5.55;;;2.83;;
76978;SDS011;65911;47.502;19.148;2023-04-24T14:37:07;4.40;;;3.10;;
76978;SDS011;65911;47.502;19.148;2023-04-24T14:40:09;4.18;;;2.78;;
76978;SDS011;65911;47.502;19.148;2023-04-24T14:43:32;4.75;;;3.20;;
76978;SDS011;65911;47.502;19.148;2023-04-24T14:46:34;4.65;;;2.83;;
76978;SDS011;65911;47.502;19.148;2023-04-24T14:49:36;5.97;;;3.42;;
76978;SDS011;65911;47.502;19.148;2023-04-24T14:52:39;6.47;;;3.08;;
76978;SDS011;65911;47.502;19.148;2023-04-24T14:55:42;4.85;;;3.10;;
76978;SDS011;65911;47.502;19.148;2023-04-24T14:58:44;5.23;;;2.83;;
76978;SDS011;65911;47.502;19.148;2023-04-24T15:01:46;4.43;;;3.00;;
76978;SDS011;65911;47.502;19.148;2023-04-24T15:04:48;6.57;;;3.50;;
76978;SDS011;65911;47.502;19.148;2023-04-24T15:07:51;6.57;;;3.30;;
76978;SDS011;65911;47.502;19.148;2023-04-24T15:10:53;6.60;;;3.33;;
76978;SDS011;65911;47.502;19.148;2023-04-24T15:13:56;6.35;;;3.38;;
76978;SDS011;65911;47.502;19.148;2023-04-24T15:16:58;4.35;;;3.03;;
76978;SDS011;65911;47.502;19.148;2023-04-24T15:20:01;5.68;;;3.55;;
76978;SDS011;65911;47.502;19.148;2023-04-24T15:23:05;3.90;;;3.20;;
76978;SDS011;65911;47.502;19.148;2023-04-24T15:26:07;3.95;;;3.30;;
76978;SDS011;65911;47.502;19.148;2023-04-24T15:29:10;4.13;;;3.50;;
76978;SDS011;65911;47.502;19.148;2023-04-24T15:32:12;6.65;;;3.85;;
76978;SDS011;65911;47.502;19.148;2023-04-24T15:35:14;6.32;;;3.90;;
76978;SDS011;65911;47.502;19.148;2023-04-24T15:38:17;5.90;;;4.07;;
76978;SDS011;65911;47.502;19.148;2023-04-24T15:41:20;8.43;;;4.15;;
76978;SDS011;65911;47.502;19.148;2023-04-24T15:44:22;8.93;;;4.32;;
76978;SDS011;65911;47.502;19.148;2023-04-24T15:47:25;8.77;;;4.15;;
76978;SDS011;65911;47.502;19.148;2023-04-24T15:50:27;7.82;;;4.28;;
76978;SDS011;65911;47.502;19.148;2023-04-24T15:53:32;6.85;;;3.47;;
76978;SDS011;65911;47.502;19.148;2023-04-24T15:56:35;9.80;;;4.57;;
76978;SDS011;65911;47.502;19.148;2023-04-24T15:59:38;5.57;;;3.67;;
76978;SDS011;65911;47.502;19.148;2023-04-24T16:02:41;5.85;;;3.65;;
76978;SDS011;65911;47.502;19.148;2023-04-24T16:05:43;5.95;;;4.10;;
76978;SDS011;65911;47.502;19.148;2023-04-24T16:08:45;7.77;;;3.33;;
76978;SDS011;65911;47.502;19.148;2023-04-24T16:11:48;10.55;;;3.83;;
76978;SDS011;65911;47.502;19.148;2023-04-24T16:14:50;8.85;;;3.80;;
76978;SDS011;65911;47.502;19.148;2023-04-24T16:17:52;6.10;;;3.80;;
76978;SDS011;65911;47.502;19.148;2023-04-24T16:20:55;5.75;;;3.83;;
76978;SDS011;65911;47.502;19.148;2023-04-24T16:23:57;5.35;;;3.88;;
76978;SDS011;65911;47.502;19.148;2023-04-24T16:26:59;5.20;;;3.38;;
76978;SDS011;65911;47.502;19.148;2023-04-24T16:30:03;5.17;;;3.37;;
76978;SDS011;65911;47.502;19.148;2023-04-24T16:33:05;5.00;;;3.63;;
76978;SDS011;65911;47.502;19.148;2023-04-24T16:36:08;4.45;;;3.35;;
76978;SDS011;65911;47.502;19.148;2023-04-24T16:39:11;5.63;;;3.23;;
76978;SDS011;65911;47.502;19.148;2023-04-24T16:42:14;6.13;;;2.72;;
76978;SDS011;65911;47.502;19.148;2023-04-24T16:45:16;3.60;;;2.92;;
76978;SDS011;65911;47.502;19.148;2023-04-24T16:48:19;7.50;;;3.05;;
76978;SDS011;65911;47.502;19.148;2023-04-24T16:51:21;4.38;;;3.00;;
76978;SDS011;65911;47.502;19.148;2023-04-24T16:54:23;4.78;;;3.17;;
76978;SDS011;65911;47.502;19.148;2023-04-24T16:57:25;3.38;;;2.97;;
76978;SDS011;65911;47.502;19.148;2023-04-24T17:00:28;4.07;;;2.80;;
76978;SDS011;65911;47.502;19.148;2023-04-24T17:03:30;4.72;;;3.03;;
76978;SDS011;65911;47.502;19.148;2023-04-24T17:06:32;3.20;;;2.90;;
76978;SDS011;65911;47.502;19.148;2023-04-24T17:09:35;5.33;;;3.17;;
76978;SDS011;65911;47.502;19.148;2023-04-24T17:12:37;4.47;;;3.00;;
76978;SDS011;65911;47.502;19.148;2023-04-24T17:15:40;4.80;;;2.70;;
76978;SDS011;65911;47.502;19.148;2023-04-24T17:18:43;5.30;;;2.75;;
76978;SDS011;65911;47.502;19.148;2023-04-24T17:21:45;3.00;;;2.70;;
76978;SDS011;65911;47.502;19.148;2023-04-24T17:24:47;6.22;;;2.72;;
76978;SDS011;65911;47.502;19.148;2023-04-24T17:27:49;4.25;;;2.85;;
76978;SDS011;65911;47.502;19.148;2023-04-24T17:30:52;6.13;;;2.67;;
76978;SDS011;65911;47.502;19.148;2023-04-24T17:33:56;3.28;;;2.70;;
76978;SDS011;65911;47.502;19.148;2023-04-24T17:37:00;3.58;;;2.80;;
76978;SDS011;65911;47.502;19.148;2023-04-24T17:40:03;4.37;;;3.37;;
76978;SDS011;65911;47.502;19.148;2023-04-24T17:43:05;2.92;;;2.40;;
76978;SDS011;65911;47.502;19.148;2023-04-24T17:46:08;4.05;;;2.80;;
76978;SDS011;65911;47.502;19.148;2023-04-24T17:49:10;3.08;;;2.70;;
76978;SDS011;65911;47.502;19.148;2023-04-24T17:52:12;3.88;;;2.60;;
76978;SDS011;65911;47.502;19.148;2023-04-24T17:55:15;3.30;;;2.33;;
76978;SDS011;65911;47.502;19.148;2023-04-24T17:58:18;2.40;;;2.13;;
76978;SDS011;65911;47.502;19.148;2023-04-24T18:01:21;3.77;;;2.60;;
76978;SDS011;65911;47.502;19.148;2023-04-24T18:04:24;4.18;;;3.00;;
76978;SDS011;65911;47.502;19.148;2023-04-24T18:07:27;3.28;;;1.95;;
76978;SDS011;65911;47.502;19.148;2023-04-24T18:10:30;2.53;;;2.00;;
76978;SDS011;65911;47.502;19.148;2023-04-24T18:13:33;2.83;;;2.20;;
76978;SDS011;65911;47.502;19.148;2023-04-24T18:16:35;2.53;;;2.00;;
76978;SDS011;65911;47.502;19.148;2023-04-24T18:19:40;2.15;;;1.77;;
76978;SDS011;65911;47.502;19.148;2023-04-24T18:22:42;4.00;;;1.88;;
76978;SDS011;65911;47.502;19.148;2023-04-24T18:25:45;1.90;;;1.70;;
76978;SDS011;65911;47.502;19.148;2023-04-24T18:28:47;1.88;;;1.60;;
76978;SDS011;65911;47.502;19.148;2023-04-24T18:31:50;3.40;;;1.63;;
76978;SDS011;65911;47.502;19.148;2023-04-24T18:34:54;1.70;;;1.35;;
76978;SDS011;65911;47.502;19.148;2023-04-24T18:37:56;2.40;;;1.75;;
76978;SDS011;65911;47.502;19.148;2023-04-24T18:40:59;2.93;;;1.60;;
76978;SDS011;65911;47.502;19.148;2023-04-24T18:44:01;2.70;;;1.92;;
76978;SDS011;65911;47.502;19.148;2023-04-24T18:47:03;2.38;;;1.60;;
76978;SDS011;65911;47.502;19.148;2023-04-24T18:50:06;2.17;;;1.77;;
76978;SDS011;65911;47.502;19.148;2023-04-24T18:53:09;2.63;;;1.90;;
76978;SDS011;65911;47.502;19.148;2023-04-24T18:56:14;3.70;;;1.65;;
76978;SDS011;65911;47.502;19.148;2023-04-24T18:59:17;2.67;;;2.20;;
76978;SDS011;65911;47.502;19.148;2023-04-24T19:02:20;1.83;;;1.63;;
76978;SDS011;65911;47.502;19.148;2023-04-24T19:05:22;2.13;;;1.30;;
76978;SDS011;65911;47.502;19.148;2023-04-24T19:08:24;1.80;;;1.33;;
76978;SDS011;65911;47.502;19.148;2023-04-24T19:11:27;2.40;;;1.57;;
76978;SDS011;65911;47.502;19.148;2023-04-24T19:14:29;2.47;;;1.52;;
76978;SDS011;65911;47.502;19.148;2023-04-24T19:17:31;2.95;;;1.58;;
76978;SDS011;65911;47.502;19.148;2023-04-24T19:20:34;2.08;;;1.50;;
76978;SDS011;65911;47.502;19.148;2023-04-24T19:23:36;2.20;;;1.67;;
76978;SDS011;65911;47.502;19.148;2023-04-24T19:26:40;1.58;;;1.17;;
76978;SDS011;65911;47.502;19.148;2023-04-24T19:29:42;2.85;;;1.35;;
76978;SDS011;65911;47.502;19.148;2023-04-24T19:32:45;1.87;;;1.17;;
76978;SDS011;65911;47.502;19.148;2023-04-24T19:35:47;3.85;;;1.70;;
76978;SDS011;65911;47.502;19.148;2023-04-24T19:38:49;6.70;;;1.77;;
76978;SDS011;65911;47.502;19.148;2023-04-24T19:41:52;1.70;;;1.60;;
76978;SDS011;65911;47.502;19.148;2023-04-24T19:44:54;3.22;;;1.38;;
76978;SDS011;65911;47.502;19.148;2023-04-24T19:47:57;2.10;;;1.42;;
76978;SDS011;65911;47.502;19.148;2023-04-24T19:51:01;3.13;;;1.60;;
76978;SDS011;65911;47.502;19.148;2023-04-24T19:54:03;1.83;;;1.52;;
76978;SDS011;65911;47.502;19.148;2023-04-24T19:57:07;2.35;;;1.60;;
76978;SDS011;65911;47.502;19.148;2023-04-24T20:00:09;2.10;;;1.60;;
76978;SDS011;65911;47.502;19.148;2023-04-24T20:03:12;1.83;;;1.30;;